Latest Coastal Weather Observations for Cape Grim

IDT60701

Issued at 5:12 am EDT Thursday 8 December 2016 (issued every 10 minutes, with the page automatically refreshed every 10 minutes)

About coastal observations | Map of coastal stations | Coastal observations for TAS | Marine services | Other Formats
Station Details ID: 091331 Name: CAPE GRIM Lat: -40.68 Lon: 144.69 Height: 86.0 m
Data from the previous 72 hours. | See also: Recent months at Cape Grim
Date/Time
EDT
Temp
°C
Wind Pressure Rain since
9am
mm
Weather Cloud Vis
km
Sea
Height
m
Swell
Dir  Spd
kts
Gust
kts
hPa Trend Height
m
Period
s
Dir
08/05:00am 14.2 E 29 37 996.0 - 1.0 - Partly cloudy - - - - -
08/04:30am 14.0 ENE 27 34 996.6 - 0.6 - Partly cloudy - - - - -
08/04:00am 14.0 ENE 29 37 996.6 - 0.0 - Partly cloudy - - - - -
08/03:30am 14.1 ENE 27 34 998.2 - 0.0 - Partly cloudy - - - - -
08/03:00am 14.3 ENE 29 37 998.5 - 0.0 - Mostly cloudy - - - - -
08/02:31am 14.1 ENE 30 40 998.8 - 0.0 - Partly cloudy - - - - -
08/02:30am 14.1 ENE 29 37 998.8 - 0.0 - Partly cloudy - - - - -
08/02:00am 14.0 ENE 32 39 1000.1 - 0.0 - Partly cloudy - - - - -
08/01:49am 14.2 ENE 29 40 1000.3 - 0.0 - Partly cloudy - - - - -
08/01:30am 13.9 ENE 30 39 1000.6 - 0.0 - Partly cloudy - - - - -
08/01:23am 14.1 ENE 29 39 1001.2 - 0.0 - Partly cloudy - - - - -
08/01:00am 14.2 ENE 26 34 1002.3 - 0.0 - Partly cloudy - - - - -
08/12:30am 14.1 NE 29 35 1003.2 - 0.0 - Partly cloudy - - - - -
08/12:00am 13.8 NE 25 33 1003.7 - 0.0 - Mostly clear - - - - -
 
Date/Time
EDT
Temp
°C
Wind Pressure Rain since
9am
mm
Weather Cloud Vis
km
Sea
Height
m
Swell
Dir  Spd
kts
Gust
kts
hPa Trend Height
m
Period
s
Dir
07/11:30pm 13.7 NE 24 31 1004.5 - 0.0 - - - - - - -
07/11:00pm 13.6 ENE 20 25 1005.3 - 0.0 - - - - - - -
07/10:30pm 13.4 ENE 17 23 1006.3 - 0.0 - - - - - - -
07/10:00pm 13.4 ENE 18 21 1006.8 - 0.0 - - - - - - -
07/09:30pm 13.1 ENE 15 18 1006.8 - 0.0 - - - - - - -
07/09:00pm 13.0 ENE 13 15 1007.5 - 0.0 - - - - - - -
07/08:30pm 13.3 NE 11 12 1008.1 - 0.0 - - - - - - -
07/08:00pm 13.9 NE 10 11 1008.6 - 0.0 - - - - - - -
07/07:30pm 14.8 NNE 6 8 1009.1 - 0.0 - - - - - - -
07/07:00pm 15.3 N 8 9 1009.9 - 0.0 - - - - - - -
07/06:30pm 15.4 N 8 10 1010.2 - 0.0 - - - - - - -
07/06:00pm 15.6 NNW 8 11 1010.6 - 0.0 - Mostly clear - - - - -
07/05:30pm 15.9 NNW 8 11 1011.1 - 0.0 - - - - - - -
07/05:00pm 16.1 NNW 9 10 1011.4 - 0.0 - Partly cloudy - - - - -
07/04:30pm 16.6 NW 8 11 1011.7 - 0.0 - Partly cloudy - - - - -
07/04:00pm 15.7 NNW 14 17 1012.0 - 0.0 - Partly cloudy - - - - -
07/03:30pm 17.0 NNW 12 16 1012.3 - 0.0 - Partly cloudy - - - - -
07/03:00pm 16.0 NNW 11 13 1012.3 - 0.0 - Mostly cloudy - - - - -
07/02:30pm 16.3 NNW 10 13 1012.6 - 0.0 - Cloudy - - - - -
07/02:00pm 16.5 NW 11 15 1012.9 - 0.0 - Cloudy - - - - -
07/01:30pm 16.4 NNW 12 15 1012.8 - 0.0 - Partly cloudy - - - - -
07/01:00pm 15.8 NW 11 17 1013.1 - 0.0 - Partly cloudy - - - - -
07/12:30pm 16.3 NNW 11 15 1013.3 - 0.0 - Partly cloudy - - - - -
07/12:00pm 15.5 NW 13 17 1013.4 - 0.0 - Cloudy - - - - -
07/11:30am 15.2 NW 13 19 1013.4 - 0.0 - Partly cloudy - - - - -
07/11:00am 15.6 NW 12 16 1013.5 - 0.0 - Partly cloudy - - - - -
07/10:30am 14.7 NW 13 17 1013.5 - 0.0 - Partly cloudy - - - - -
07/10:00am 15.4 NW 13 17 1013.7 - 0.0 - Partly cloudy - - - - -
07/09:30am 15.2 WNW 11 16 1013.9 - 0.0 - Partly cloudy - - - - -
07/09:00am 15.1 WNW 13 16 1013.8 - 0.0 - Cloudy - - - - -
07/08:30am 15.1 WNW 14 17 1013.7 - 0.0 - - - - - - -
07/08:00am 14.2 WNW 14 17 1013.7 - 0.0 - Partly cloudy - - - - -
07/07:30am 14.0 WNW 13 17 1013.3 - 0.0 - Partly cloudy - - - - -
07/07:00am 14.0 W 14 18 1013.3 - 0.0 - Partly cloudy - - - - -
07/06:30am 13.4 W 15 19 1013.1 - 0.0 - Partly cloudy - - - - -
07/06:00am 13.3 W 15 19 1012.9 - 0.0 - Cloudy - - - - -
07/05:58am 13.3 W 15 19 1012.9 - 0.0 - Partly cloudy - - - - -
07/05:36am 13.3 W 14 18 1012.7 - 0.0 - Partly cloudy - - - - -
07/05:30am 13.3 W 14 19 1012.7 - 0.0 - Partly cloudy - - - - -
07/05:00am 13.0 W 15 18 1012.3 - 0.0 - Partly cloudy - - - - -
07/04:30am 13.0 WNW 15 20 1012.2 - 0.0 - Partly cloudy - - - - -
07/04:00am 13.0 WNW 14 18 1012.1 - 0.0 - Partly cloudy - - - - -
07/03:30am 13.0 WNW 16 21 1012.2 - 0.0 - Partly cloudy - - - - -
07/03:00am 13.1 WNW 17 21 1012.5 - 0.0 - - - - - - -
07/02:30am 12.9 WNW 15 18 1012.6 - 0.0 - - - - - - -
07/02:00am 13.1 WNW 15 19 1012.9 - 0.0 - Partly cloudy - - - - -
07/01:30am 13.1 WNW 15 19 1013.1 - 0.0 - Partly cloudy - - - - -
07/01:00am 13.0 WNW 16 20 1013.4 - 0.0 - - - - - - -
07/12:30am 13.1 W 15 21 1013.4 - 0.0 - - - - - - -
07/12:00am 13.3 W 15 22 1013.5 - 0.0 - Mostly clear - - - - -
 
Date/Time
EDT
Temp
°C
Wind Pressure Rain since
9am
mm
Weather Cloud Vis
km
Sea
Height
m
Swell
Dir  Spd
kts
Gust
kts
hPa Trend Height
m
Period
s
Dir
06/11:30pm 13.4 W 17 22 1013.8 - 0.0 - Partly cloudy - - - - -
06/11:00pm 13.4 W 18 22 1014.0 - 0.0 - Partly cloudy - - - - -
06/10:30pm 13.7 WNW 18 23 1014.0 - 0.0 - Partly cloudy - - - - -
06/10:00pm 13.5 WNW 16 20 1014.1 - 0.0 - Partly cloudy - - - - -
06/09:30pm 13.4 W 16 21 1013.9 - 0.0 - Partly cloudy - - - - -
06/09:00pm 13.4 W 15 22 1013.5 - 0.0 - Partly cloudy - - - - -
06/08:30pm 13.5 W 14 20 1013.5 - 0.0 - Partly cloudy - - - - -
06/08:00pm 13.6 W 14 21 1013.5 - 0.0 - Partly cloudy - - - - -
06/07:30pm 14.0 W 13 19 1013.1 - 0.0 - - - - - - -
06/07:00pm 14.4 W 12 17 1012.7 - 0.0 - - - - - - -
06/06:30pm 14.5 W 12 17 1012.7 - 0.0 - - - - - - -
06/06:00pm 14.5 W 12 16 1012.5 - 0.0 - - - - - - -
06/05:30pm 14.5 W 12 19 1012.4 - 0.0 - - - - - - -
06/05:00pm 14.6 W 13 18 1012.5 - 0.0 - - - - - - -
06/04:30pm 14.4 W 13 20 1012.5 - 0.0 - - - - - - -
06/04:00pm 14.3 W 12 20 1012.6 - 0.0 - Partly cloudy - - - - -
06/03:30pm 14.4 W 13 20 1012.5 - 0.0 - Partly cloudy - - - - -
06/03:00pm 14.4 W 11 19 1012.5 - 0.0 - - - - - - -
06/02:30pm 14.3 WSW 12 20 1012.5 - 0.0 - - - - - - -
06/02:00pm 14.4 W 12 20 1012.7 - 0.0 - Partly cloudy - - - - -
06/01:30pm 14.5 W 15 23 1012.7 - 0.0 - Partly cloudy - - - - -
06/01:00pm 14.6 W 14 21 1012.7 - 0.0 - Partly cloudy - - - - -
06/12:30pm 14.5 W 11 19 1012.7 - 0.0 - Partly cloudy - - - - -
06/12:00pm 14.4 WSW 9 14 1012.7 - 0.0 - Mostly cloudy - - - - -
06/11:30am 14.1 WSW 8 14 1012.9 - 0.0 - Cloudy - - - - -
06/11:00am 14.0 WSW 8 14 1012.7 - 0.0 - Cloudy - - - - -
06/10:30am 13.9 W 9 17 1012.5 - 0.0 - Cloudy - - - - -
06/10:00am 13.4 WSW 10 16 1012.5 - 0.0 - Partly cloudy - - - - -
06/09:30am 12.9 WSW 9 16 1012.4 - 0.0 - Cloudy - - - - -
06/09:00am 12.9 W 10 16 1012.5 - 0.2 - Mostly cloudy - - - - -
06/08:30am 12.9 WSW 9 14 1012.6 - 0.2 - Partly cloudy - - - - -
06/08:00am 12.7 SW 8 13 1012.0 - 0.2 - Partly cloudy - - - - -
06/07:30am 12.2 SW 12 17 1012.0 - 0.2 - Cloudy - - - - -
06/07:00am 12.2 SW 12 18 1012.3 - 0.2 - Cloudy - - - - -
06/06:30am 12.2 WSW 15 23 1012.0 - 0.2 - Cloudy - - - - -
06/06:07am 12.2 WSW 15 25 1012.2 - 0.2 - Cloudy - - - - -
06/06:00am 12.2 WSW 12 21 1012.2 - 0.2 - Cloudy - - - - -
06/05:30am 12.0 WSW 14 23 1011.9 - 0.2 - Cloudy - - - - -
06/05:00am 12.2 WSW 12 19 1011.8 - 0.2 - Cloudy - - - - -
06/04:30am 12.3 WSW 12 19 1011.6 - 0.2 - Cloudy - - - - -
06/04:00am 12.2 W 8 13 1011.4 - 0.2 - Partly cloudy - - - - -
06/03:30am 12.1 W 9 13 1011.3 - 0.2 - Cloudy - - - - -
06/03:00am 11.9 W 12 15 1011.7 - 0.2 - Cloudy - - - - -
06/02:30am 12.1 W 10 14 1011.7 - 0.2 - Cloudy - - - - -
06/02:00am 12.2 WSW 9 15 1012.2 - 0.2 - Partly cloudy - - - - -
06/01:30am 12.3 W 9 15 1012.4 - 0.2 - Cloudy - - - - -
06/01:00am 12.3 W 7 11 1012.2 - 0.2 - Partly cloudy - - - - -
06/12:30am 12.3 WSW 9 13 1012.4 - 0.2 - Partly cloudy - - - - -
06/12:00am 12.5 WSW 8 13 1012.6 - 0.2 - Partly cloudy - - - - -
 
Date/Time
EDT
Temp
°C
Wind Pressure Rain since
9am
mm
Weather Cloud Vis
km
Sea
Height
m
Swell
Dir  Spd
kts
Gust
kts
hPa Trend Height
m
Period
s
Dir
05/11:30pm 12.1 SW 13 18 1012.6 - 0.2 - Partly cloudy - - - - -
05/11:00pm 12.6 SW 13 16 1013.4 - 0.2 - Partly cloudy - - - - -
05/10:30pm 12.6 SW 13 18 1013.8 - 0.2 - Partly cloudy - - - - -
05/10:00pm 12.7 SW 14 18 1014.0 - 0.2 - Partly cloudy - - - - -
05/09:30pm 12.2 SW 14 18 1013.5 - 0.2 - Partly cloudy - - - - -
05/09:00pm 12.2 SW 14 22 1012.7 - 0.2 - Mostly clear - - - - -
05/08:30pm 12.5 SW 17 22 1012.7 - 0.2 - Partly cloudy - - - - -
05/08:00pm 12.8 SW 18 22 1012.5 - 0.2 - Cloudy - - - - -
05/07:30pm 13.2 SW 17 24 1012.8 - 0.2 - Partly cloudy - - - - -
05/07:00pm 13.4 SW 20 24 1012.5 - 0.2 - Partly cloudy - - - - -
05/06:30pm 13.6 SW 21 25 1011.8 - 0.2 - - - - - - -
05/06:00pm 13.8 SW 19 23 1011.7 - 0.2 - - - - - - -
05/05:30pm 13.2 SW 20 26 1011.7 - 0.2 - - - - - - -
05/05:00pm 14.2 SW 21 26 1012.1 - 0.2 - - - - - - -
05/04:30pm 14.1 SW 21 25 1011.6 - 0.2 - Cloudy - - - - -
05/04:00pm 13.9 SW 21 27 1011.3 - 0.2 - Partly cloudy - - - - -
05/03:30pm 14.1 SW 22 29 1011.0 - 0.2 - Partly cloudy - - - - -
05/03:00pm 14.0 SW 21 29 1011.0 - 0.2 - Cloudy - - - - -
05/02:30pm 15.2 SW 20 25 1010.9 - 0.2 - - - - - - -
05/02:00pm 14.1 SW 19 27 1010.8 - 0.2 - - - - - - -
05/01:32pm 13.7 SW 19 29 1011.0 - 0.2 - Partly cloudy - - - - -
05/01:30pm 13.7 SW 20 29 1011.0 - 0.2 - Partly cloudy - - - - -
05/01:03pm 13.6 WSW 15 26 1010.5 - 0.2 - Cloudy - - - - -
05/01:00pm 13.7 WSW 14 25 1010.5 - 0.2 - Cloudy - - - - -
05/12:48pm 14.2 SW 17 27 1010.5 - 0.2 - Partly cloudy - - - - -
05/12:30pm 14.1 SW 17 26 1010.1 - 0.2 - Partly cloudy - - - - -
05/12:18pm 14.3 SW 15 25 1009.9 - 0.0 - Partly cloudy - - - - -
05/12:00pm 14.2 SW 17 26 1009.9 - 0.0 - Mostly cloudy - - - - -
05/11:34am 14.1 WSW 15 29 1009.8 - 0.0 - Partly cloudy - - - - -
05/11:30am 13.7 WSW 14 26 1009.7 - 0.0 - Partly cloudy - - - - -
05/11:10am 13.9 SW 16 27 1009.6 - 0.0 - Partly cloudy - - - - -
05/11:00am 14.0 SW 19 25 1009.4 - 0.0 - Partly cloudy - - - - -
05/10:30am 13.5 WSW 15 29 1009.1 - 0.0 - Partly cloudy - - - - -
05/10:09am 14.3 W 15 25 1008.8 - 0.0 - Partly cloudy - - - - -
05/10:00am 14.4 WSW 12 22 1008.7 - 0.0 - Partly cloudy - - - - -
05/09:30am 14.5 WSW 11 19 1008.4 - 0.0 - Partly cloudy - - - - -
05/09:00am 14.4 WSW 12 21 1007.9 - 2.4 - Cloudy - - - - -
05/08:30am 13.9 WSW 17 27 1007.4 - 2.4 - Cloudy - - - - -
05/08:00am 14.2 WSW 15 28 1006.9 - 2.4 - Partly cloudy - - - - -
05/07:38am 14.1 W 15 27 1006.7 - 2.4 - Partly cloudy - - - - -
05/07:30am 14.1 W 14 23 1006.6 - 2.4 - Cloudy - - - - -
05/07:06am 13.9 W 20 31 1006.2 - 2.4 - Cloudy - - - - -
05/07:00am 14.1 W 19 27 1006.1 - 2.4 - Cloudy - - - - -
05/06:46am 13.9 W 17 27 1005.9 - 2.4 - Cloudy - - - - -
05/06:30am 13.9 W 18 27 1005.6 - 2.4 - Partly cloudy - - - - -
05/06:00am 13.7 WSW 18 29 1005.0 - 2.4 - Mostly cloudy - - - - -
05/05:30am 13.4 WSW 18 31 1004.2 - 2.4 - Partly cloudy - - - - -

Other Formats:

Comma delimited format used in spreadsheet applications
http://www.bom.gov.au/fwo/IDT60701/IDT60701.95954.axf

JavaScript Object Notation format (JSON) in row-major order
http://www.bom.gov.au/fwo/IDT60701/IDT60701.95954.json